createdAt,value
2023-02-18T00:00:37.162Z,97768.66
2023-02-18T00:02:38.505Z,97774.25
2023-02-18T00:04:39.926Z,97761.38
2023-02-18T00:06:41.259Z,97759.66
2023-02-18T00:08:42.601Z,97757.94
2023-02-18T00:10:44.110Z,97757.81
2023-02-18T00:12:45.432Z,97759.50
2023-02-18T00:14:46.729Z,97759.47
2023-02-18T00:16:48.028Z,97749.13
2023-02-18T00:18:49.331Z,97761.91
2023-02-18T00:20:50.644Z,97752.47
2023-02-18T00:22:51.981Z,97755.03
2023-02-18T00:24:53.405Z,97753.25
2023-02-18T00:26:54.695Z,97760.00
2023-02-18T00:28:56.011Z,97754.94
2023-02-18T00:30:57.349Z,97750.69
2023-02-18T00:32:58.689Z,97775.34
2023-02-18T00:35:00.025Z,97760.81
2023-02-18T00:37:01.319Z,97771.84
2023-02-18T00:39:03.948Z,97774.41
2023-02-18T00:41:05.286Z,97780.38
2023-02-18T00:43:06.580Z,97770.13
2023-02-18T00:45:07.923Z,97776.16
2023-02-18T00:47:09.223Z,97780.41
2023-02-18T00:49:10.548Z,97783.84
2023-02-18T00:51:11.871Z,97784.75
2023-02-18T00:53:13.173Z,97787.31
2023-02-18T00:55:14.540Z,97800.16
2023-02-18T00:57:15.861Z,97802.72
2023-02-18T00:59:17.154Z,97794.28
2023-02-18T01:01:18.486Z,97798.59
2023-02-18T01:03:19.897Z,97802.94
2023-02-18T01:05:21.227Z,97793.66
2023-02-18T01:07:22.552Z,97798.88
2023-02-18T01:09:25.798Z,97803.22
2023-02-18T01:11:27.143Z,97796.50
2023-02-18T01:13:28.487Z,97786.41
2023-02-18T01:15:29.830Z,97801.78
2023-02-18T01:17:31.146Z,97793.28
2023-02-18T01:19:32.444Z,97795.06
2023-02-18T01:21:33.738Z,97795.94
2023-02-18T01:23:35.031Z,97811.22
2023-02-18T01:25:36.332Z,97791.69
2023-02-18T01:27:37.680Z,97790.84
2023-02-18T01:29:39.031Z,97795.13
2023-02-18T01:31:40.492Z,97803.63
2023-02-18T01:33:41.880Z,97802.84
2023-02-18T01:35:43.215Z,97786.66
2023-02-18T01:37:44.504Z,97784.97
2023-02-18T01:39:46.077Z,97783.31
2023-02-18T01:41:47.379Z,97789.31
2023-02-18T01:43:48.697Z,97793.53
2023-02-18T01:45:50.550Z,97797.81
2023-02-18T01:47:51.846Z,97783.31
2023-02-18T01:49:53.170Z,97786.66
2023-02-18T01:51:54.580Z,97795.13
2023-02-18T01:53:55.951Z,97802.63
2023-02-18T01:55:57.287Z,97800.81
2023-02-18T01:57:58.598Z,97800.81
2023-02-18T01:59:59.928Z,97797.41
2023-02-18T02:02:01.331Z,97793.81
2023-02-18T02:04:02.704Z,97792.78
2023-02-18T02:06:03.992Z,97783.38
2023-02-18T02:08:05.287Z,97781.66
2023-02-18T02:10:06.619Z,97787.56
2023-02-18T02:12:07.908Z,97776.53
2023-02-18T02:14:09.200Z,97777.31
2023-02-18T02:16:10.825Z,97795.19
2023-02-18T02:18:12.347Z,97790.09
2023-02-18T02:20:13.640Z,97785.81
2023-02-18T02:22:14.979Z,97790.97
2023-02-18T02:24:16.291Z,97788.41
2023-02-18T02:26:17.597Z,97781.59
2023-02-18T02:28:18.934Z,97779.09
2023-02-18T02:30:20.305Z,97786.69
2023-02-18T02:32:21.718Z,97789.25
2023-02-18T02:34:23.017Z,97790.16
2023-02-18T02:36:24.311Z,97786.91
2023-02-18T02:38:25.651Z,97792.09
2023-02-18T02:40:27.755Z,97796.50
2023-02-18T02:42:29.155Z,97793.09
2023-02-18T02:44:30.489Z,97787.19
2023-02-18T02:46:31.782Z,97800.88
2023-02-18T02:48:33.117Z,97797.44
2023-02-18T02:50:34.448Z,97800.03
2023-02-18T02:52:35.756Z,97788.97
2023-02-18T02:54:37.185Z,97793.22
2023-02-18T02:56:38.525Z,97794.94
2023-02-18T02:58:39.856Z,97806.84
2023-02-18T03:00:41.183Z,97809.41
2023-02-18T03:02:42.602Z,97816.13
2023-02-18T03:04:43.928Z,97810.09
2023-02-18T03:06:45.230Z,97808.34
2023-02-18T03:08:46.558Z,97811.66
2023-02-18T03:10:47.907Z,97809.91
2023-02-18T03:12:49.205Z,97819.28
2023-02-18T03:14:50.511Z,97812.41
2023-02-18T03:16:51.844Z,97807.22
2023-02-18T03:18:53.209Z,97819.06
2023-02-18T03:20:54.536Z,97818.06
2023-02-18T03:22:55.900Z,97815.44
2023-02-18T03:24:57.187Z,97806.75
2023-02-18T03:26:58.476Z,97812.75
2023-02-18T03:28:59.811Z,97816.97
2023-02-18T03:31:01.172Z,97810.09
2023-02-18T03:33:02.505Z,97818.41
2023-02-18T03:35:03.838Z,97819.13
2023-02-18T03:37:05.135Z,97823.84
2023-02-18T03:39:06.474Z,97818.34
2023-02-18T03:41:07.774Z,97819.75
2023-02-18T03:43:09.172Z,97834.09
2023-02-18T03:45:10.472Z,97830.63
2023-02-18T03:47:11.799Z,97820.41
2023-02-18T03:49:13.129Z,97829.75
2023-02-18T03:51:14.443Z,97826.44
2023-02-18T03:53:15.735Z,97832.41
2023-02-18T03:55:17.057Z,97830.75
2023-02-18T03:57:18.400Z,97837.63
2023-02-18T03:59:19.699Z,97831.75
2023-02-18T04:01:21.022Z,97842.81
2023-02-18T04:03:22.320Z,97837.63
2023-02-18T04:05:23.610Z,97847.84
2023-02-18T04:07:24.942Z,97836.84
2023-02-18T04:09:26.647Z,97838.56
2023-02-18T04:11:27.954Z,97838.59
2023-02-18T04:13:29.289Z,97834.38
2023-02-18T04:15:30.623Z,97831.84
2023-02-18T04:17:31.961Z,97831.00
2023-02-18T04:19:33.271Z,97824.16
2023-02-18T04:21:34.611Z,97831.91
2023-02-18T04:23:35.991Z,97838.66
2023-02-18T04:25:37.284Z,97819.97
2023-02-18T04:27:38.588Z,97830.19
2023-02-18T04:29:40.119Z,97842.09
2023-02-18T04:31:41.504Z,97832.72
2023-02-18T04:33:42.828Z,97849.69
2023-02-18T04:35:44.126Z,97836.88
2023-02-18T04:37:45.453Z,97839.41
2023-02-18T04:39:46.753Z,97843.69
2023-02-18T04:41:48.047Z,97837.72
2023-02-18T04:43:49.383Z,97835.16
2023-02-18T04:45:50.682Z,97842.88
2023-02-18T04:47:52.059Z,97833.38
2023-02-18T04:49:53.363Z,97833.16
2023-02-18T04:51:54.666Z,97831.31
2023-02-18T04:53:55.954Z,97827.00
2023-02-18T04:55:57.346Z,97810.03
2023-02-18T04:57:58.658Z,97830.59
2023-02-18T04:59:59.956Z,97840.78
2023-02-18T05:02:02.154Z,97831.22
2023-02-18T05:04:03.485Z,97836.28
2023-02-18T05:06:04.863Z,97828.59
2023-02-18T05:08:06.182Z,97827.84
2023-02-18T05:10:07.479Z,97823.50
2023-02-18T05:12:08.792Z,97817.75
2023-02-18T05:14:10.139Z,97817.03
2023-02-18T05:16:11.810Z,97813.72
2023-02-18T05:18:13.309Z,97812.94
2023-02-18T05:20:14.609Z,97821.47
2023-02-18T05:22:21.799Z,97816.28
2023-02-18T05:24:23.100Z,97817.19
2023-02-18T05:26:24.388Z,97808.69
2023-02-18T05:28:25.720Z,97815.56
2023-02-18T05:30:27.041Z,97821.59
2023-02-18T05:32:28.451Z,97825.00
2023-02-18T05:34:29.764Z,97825.09
2023-02-18T05:36:31.060Z,97829.25
2023-02-18T05:38:32.346Z,97822.50
2023-02-18T05:40:33.641Z,97822.50
2023-02-18T05:42:34.976Z,97818.31
2023-02-18T05:44:36.313Z,97831.03
2023-02-18T05:46:37.687Z,97820.81
2023-02-18T05:48:39.037Z,97825.09
2023-02-18T05:50:40.329Z,97823.38
2023-02-18T05:52:41.659Z,97830.19
2023-02-18T05:54:42.966Z,97827.69
2023-02-18T05:56:44.291Z,97829.34
2023-02-18T05:58:45.615Z,97828.44
2023-02-18T06:00:46.965Z,97825.00
2023-02-18T06:02:48.345Z,97819.69
2023-02-18T06:04:49.779Z,97830.63
2023-02-18T06:06:51.154Z,97809.25
2023-02-18T06:08:52.489Z,97815.97
2023-02-18T06:10:53.840Z,97821.16
2023-02-18T06:12:55.165Z,97826.16
2023-02-18T06:14:56.463Z,97826.13
2023-02-18T06:16:57.811Z,97825.28
2023-02-18T06:18:59.113Z,97824.41
2023-02-18T06:21:00.603Z,97821.94
2023-02-18T06:23:01.951Z,97826.16
2023-02-18T06:25:03.356Z,97819.38
2023-02-18T06:27:04.660Z,97818.59
2023-02-18T06:29:05.987Z,97824.59
2023-02-18T06:31:07.373Z,97828.13
2023-02-18T06:33:08.735Z,97845.25
2023-02-18T06:35:10.063Z,97830.75
2023-02-18T06:37:11.356Z,97821.41
2023-02-18T06:39:12.658Z,97828.28
2023-02-18T06:41:13.990Z,97810.53
2023-02-18T06:43:15.334Z,97804.66
2023-02-18T06:45:16.674Z,97825.16
2023-02-18T06:47:17.977Z,97816.72
2023-02-18T06:49:19.271Z,97814.94
2023-02-18T06:51:20.606Z,97811.38
2023-02-18T06:53:21.942Z,97816.44
2023-02-18T06:55:23.283Z,97813.09
2023-02-18T06:57:24.575Z,97809.75
2023-02-18T06:59:25.867Z,97806.38
2023-02-18T07:01:27.250Z,97800.47
2023-02-18T07:03:28.615Z,97799.69
2023-02-18T07:05:29.948Z,97804.00
2023-02-18T07:07:31.320Z,97802.38
2023-02-18T07:09:32.615Z,97797.34
2023-02-18T07:11:33.900Z,97798.28
2023-02-18T07:13:35.303Z,97796.66
2023-02-18T07:15:36.603Z,97797.53
2023-02-18T07:17:37.900Z,97795.06
2023-02-18T07:19:39.192Z,97796.03
2023-02-18T07:21:40.490Z,97789.38
2023-02-18T07:23:41.793Z,97788.59
2023-02-18T07:25:43.136Z,97794.47
2023-02-18T07:27:44.497Z,97789.09
2023-02-18T07:29:45.858Z,97783.88
2023-02-18T07:31:47.225Z,97792.16
2023-02-18T07:33:48.584Z,97779.16
2023-02-18T07:35:49.989Z,97784.06
2023-02-18T07:37:51.469Z,97722.59
2023-02-18T07:39:52.834Z,97770.72
2023-02-18T07:41:54.167Z,97773.44
2023-02-18T07:43:55.460Z,97785.00
2023-02-18T07:45:56.854Z,97780.50
2023-02-18T07:47:58.207Z,97780.88
2023-02-18T07:49:59.591Z,97790.47
2023-02-18T07:52:00.925Z,97792.34
2023-02-18T07:54:02.230Z,97791.69
2023-02-18T07:56:03.578Z,97786.81
2023-02-18T07:58:04.931Z,97788.50
2023-02-18T08:00:06.267Z,97786.00
2023-02-18T08:02:07.729Z,97778.03
2023-02-18T08:04:09.159Z,97772.31
2023-02-18T08:06:10.853Z,97774.22
2023-02-18T08:08:12.285Z,97767.09
2023-02-18T08:10:14.041Z,97770.28
2023-02-18T08:12:15.451Z,97752.19
2023-02-18T08:14:19.831Z,97761.38
2023-02-18T08:16:24.321Z,97746.78
2023-02-18T08:18:25.656Z,97749.22
2023-02-18T08:20:27.700Z,97747.31
2023-02-18T08:22:30.490Z,97742.06
2023-02-18T08:24:31.788Z,97742.84
2023-02-18T08:26:33.120Z,97738.44
2023-02-18T08:28:34.424Z,97737.59
2023-02-18T08:30:35.864Z,97735.84
2023-02-18T08:32:37.252Z,97732.38
2023-02-18T08:34:38.639Z,97724.75
2023-02-18T08:36:39.939Z,97723.91
2023-02-18T08:38:41.248Z,97733.13
2023-02-18T08:40:42.619Z,97734.09
2023-02-18T08:42:43.959Z,97729.00
2023-02-18T08:44:45.259Z,97728.16
2023-02-18T08:46:48.202Z,97722.97
2023-02-18T08:48:49.530Z,97727.16
2023-02-18T08:50:50.910Z,97717.06
2023-02-18T08:52:52.207Z,97715.38
2023-02-18T08:54:53.552Z,97702.56
2023-02-18T08:56:55.263Z,97708.50
2023-02-18T08:58:56.577Z,97706.09
2023-02-18T09:00:57.916Z,97685.88
2023-02-18T09:02:59.248Z,97683.38
2023-02-18T09:05:00.626Z,97682.69
2023-02-18T09:07:02.328Z,97676.88
2023-02-18T09:09:03.633Z,97670.13
2023-02-18T09:11:04.983Z,97670.22
2023-02-18T09:13:06.392Z,97657.53
2023-02-18T09:15:07.701Z,97661.91
2023-02-18T09:17:09.126Z,97662.75
2023-02-18T09:19:10.415Z,97661.16
2023-02-18T09:21:11.800Z,97658.72
2023-02-18T09:23:13.125Z,97664.75
2023-02-18T09:25:14.467Z,97661.44
2023-02-18T09:27:15.788Z,97658.91
2023-02-18T09:29:17.211Z,97658.94
2023-02-18T09:31:18.621Z,97638.59
2023-02-18T09:33:20.005Z,97641.13
2023-02-18T09:35:21.381Z,97641.09
2023-02-18T09:37:22.675Z,97633.56
2023-02-18T09:39:24.004Z,97624.53
2023-02-18T09:41:25.353Z,97614.53
2023-02-18T09:43:26.668Z,97617.84
2023-02-18T09:45:28.014Z,97610.38
2023-02-18T09:47:29.359Z,97608.91
2023-02-18T09:49:31.296Z,97600.88
2023-02-18T09:51:32.628Z,97600.13
2023-02-18T09:53:33.923Z,97592.72
2023-02-18T09:55:36.367Z,97586.59
2023-02-18T09:57:37.691Z,97577.75
2023-02-18T09:59:38.984Z,97567.41
2023-02-18T10:01:40.393Z,97559.84
2023-02-18T10:03:43.817Z,97561.00
2023-02-18T10:05:45.112Z,97554.50
2023-02-18T10:07:46.411Z,97553.38
2023-02-18T10:09:48.535Z,97546.84
2023-02-18T10:11:49.887Z,97544.50
2023-02-18T10:13:51.290Z,97547.19
2023-02-18T10:15:52.689Z,97537.59
2023-02-18T10:17:54.068Z,97537.94
2023-02-18T10:19:55.410Z,97534.94
2023-02-18T10:21:56.784Z,97537.69
2023-02-18T10:23:58.535Z,97533.59
2023-02-18T10:25:59.905Z,97531.22
2023-02-18T10:28:01.225Z,97526.25
2023-02-18T10:30:02.572Z,97523.81
2023-02-18T10:32:03.901Z,97514.59
2023-02-18T10:34:05.224Z,97508.81
2023-02-18T10:36:06.556Z,97502.06
2023-02-18T10:38:07.889Z,97503.00
2023-02-18T10:40:09.185Z,97496.34
2023-02-18T10:42:10.671Z,97498.97
2023-02-18T10:44:12.018Z,97488.84
2023-02-18T10:46:13.799Z,97482.13
2023-02-18T10:48:15.363Z,97474.56
2023-02-18T10:50:16.672Z,97472.88
2023-02-18T10:52:17.967Z,97472.94
2023-02-18T10:54:19.308Z,97462.72
2023-02-18T10:56:20.702Z,97461.94
2023-02-18T10:58:22.023Z,97460.22
2023-02-18T11:00:24.132Z,97444.91
2023-02-18T11:02:25.540Z,97455.06
2023-02-18T11:04:26.890Z,97444.69
2023-02-18T11:06:28.239Z,97437.72
2023-02-18T11:08:30.207Z,97434.25
2023-02-18T11:10:31.583Z,97426.44
2023-02-18T11:12:32.894Z,97423.75
2023-02-18T11:14:34.199Z,97416.03
2023-02-18T11:16:35.500Z,97415.00
2023-02-18T11:18:36.888Z,97420.00
2023-02-18T11:20:38.192Z,97413.97
2023-02-18T11:22:41.421Z,97409.72
2023-02-18T11:24:48.191Z,97406.22
2023-02-18T11:26:49.503Z,97399.06
2023-02-18T11:28:50.849Z,97384.13
2023-02-18T11:30:52.163Z,97385.09
2023-02-18T11:32:53.503Z,97383.16
2023-02-18T11:34:54.795Z,97384.03
2023-02-18T11:36:56.140Z,97378.34
2023-02-18T11:38:57.561Z,97375.84
2023-02-18T11:40:58.891Z,97366.78
2023-02-18T11:43:00.240Z,97368.22
2023-02-18T11:45:04.472Z,97354.06
2023-02-18T11:47:06.783Z,97355.22
2023-02-18T11:49:08.087Z,97352.88
2023-02-18T11:51:09.632Z,97358.06
2023-02-18T11:53:11.123Z,97351.41
2023-02-18T11:55:15.436Z,97346.41
2023-02-18T11:57:17.043Z,97343.03
2023-02-18T11:59:18.330Z,97335.56
2023-02-18T12:01:19.666Z,97337.22
2023-02-18T12:03:20.975Z,97331.38
2023-02-18T12:05:23.024Z,97333.16
2023-02-18T12:07:24.376Z,97315.28
2023-02-18T12:09:25.675Z,97321.25
2023-02-18T12:11:27.026Z,97314.50
2023-02-18T12:13:28.332Z,97307.78
2023-02-18T12:15:29.628Z,97302.72
2023-02-18T12:17:31.245Z,97295.06
2023-02-18T12:19:32.822Z,97294.22
2023-02-18T12:21:34.127Z,97283.22
2023-02-18T12:23:35.465Z,97275.63
2023-02-18T12:25:43.099Z,97282.38
2023-02-18T12:27:44.439Z,97278.94
2023-02-18T12:29:45.732Z,97270.56
2023-02-18T12:31:47.058Z,97273.50
2023-02-18T12:33:48.460Z,97268.06
2023-02-18T12:35:49.962Z,97272.28
2023-02-18T12:37:51.303Z,97260.78
2023-02-18T12:39:52.694Z,97265.06
2023-02-18T12:41:53.985Z,97262.81
2023-02-18T12:43:55.291Z,97268.78
2023-02-18T12:45:57.308Z,97263.59
2023-02-18T12:47:58.696Z,97249.56
2023-02-18T12:50:00.039Z,97248.63
2023-02-18T12:52:02.255Z,97249.63
2023-02-18T12:54:06.004Z,97252.44
2023-02-18T12:56:08.601Z,97245.16
2023-02-18T12:58:10.105Z,97255.97
2023-02-18T13:00:11.430Z,97252.84
2023-02-18T13:02:12.790Z,97243.97
2023-02-18T13:04:14.930Z,97243.44
2023-02-18T13:06:17.127Z,97236.75
2023-02-18T13:08:18.474Z,97232.69
2023-02-18T13:10:19.797Z,97235.31
2023-02-18T13:12:21.096Z,97234.50
2023-02-18T13:14:22.396Z,97231.25
2023-02-18T13:16:26.723Z,97224.53
2023-02-18T13:18:28.053Z,97228.84
2023-02-18T13:20:32.427Z,97241.72
2023-02-18T13:22:33.725Z,97225.66
2023-02-18T13:24:35.113Z,97227.44
2023-02-18T13:26:36.525Z,97226.59
2023-02-18T13:28:37.828Z,97230.94
2023-02-18T13:30:39.347Z,97224.09
2023-02-18T13:32:40.729Z,97232.72
2023-02-18T13:34:43.010Z,97223.44
2023-02-18T13:36:44.312Z,97242.22
2023-02-18T13:38:45.634Z,97226.88
2023-02-18T13:40:46.967Z,97241.38
2023-02-18T13:42:48.323Z,97228.66
2023-02-18T13:44:49.652Z,97225.28
2023-02-18T13:46:51.009Z,97213.44
2023-02-18T13:48:52.837Z,97243.28
2023-02-18T13:50:54.300Z,97240.69
2023-02-18T13:52:55.652Z,97237.31
2023-02-18T13:54:56.983Z,97242.44
2023-02-18T13:56:58.310Z,97239.72
2023-02-18T13:59:00.333Z,97237.88
2023-02-18T14:01:02.207Z,97235.22
2023-02-18T14:03:03.538Z,97238.28
2023-02-18T14:05:07.543Z,97240.88
2023-02-18T14:07:08.879Z,97250.63
2023-02-18T14:09:10.180Z,97246.66
2023-02-18T14:11:11.524Z,97242.63
2023-02-18T14:13:12.821Z,97244.50
2023-02-18T14:15:14.122Z,97252.22
2023-02-18T14:17:15.505Z,97248.88
2023-02-18T14:19:16.838Z,97240.38
2023-02-18T14:21:18.194Z,97228.72
2023-02-18T14:23:19.597Z,97248.53
2023-02-18T14:25:20.966Z,97211.31
2023-02-18T14:27:22.289Z,97229.31
2023-02-18T14:29:23.619Z,97230.44
2023-02-18T14:31:30.271Z,97225.56
2023-02-18T14:33:32.542Z,97220.66
2023-02-18T14:35:34.119Z,97222.59
2023-02-18T14:37:36.592Z,97238.81
2023-02-18T14:39:37.950Z,97227.75
2023-02-18T14:41:39.240Z,97210.75
2023-02-18T14:43:40.974Z,97229.47
2023-02-18T14:45:45.382Z,97223.44
2023-02-18T14:47:46.715Z,97220.88
2023-02-18T14:49:48.147Z,97229.38
2023-02-18T14:51:49.477Z,97230.13
2023-02-18T14:53:50.836Z,97238.88
2023-02-18T14:55:52.174Z,97237.41
2023-02-18T14:57:53.598Z,97235.00
2023-02-18T14:59:54.893Z,97248.81
2023-02-18T15:01:56.536Z,97236.47
2023-02-18T15:03:57.892Z,97227.66
2023-02-18T15:05:59.215Z,97235.00
2023-02-18T15:08:00.588Z,97233.41
2023-02-18T15:10:02.196Z,97224.78
2023-02-18T15:12:04.614Z,97242.53
2023-02-18T15:14:06.109Z,97222.19
2023-02-18T15:16:07.997Z,97235.81
2023-02-18T15:18:09.622Z,97235.25
2023-02-18T15:20:10.924Z,97225.78
2023-02-18T15:22:12.235Z,97240.00
2023-02-18T15:24:13.716Z,97260.13
2023-02-18T15:26:15.185Z,97246.59
2023-02-18T15:28:16.488Z,97258.03
2023-02-18T15:30:17.975Z,97241.59
2023-02-18T15:32:19.525Z,97251.75
2023-02-18T15:34:20.919Z,97253.63
2023-02-18T15:36:22.246Z,97261.63
2023-02-18T15:38:23.555Z,97258.00
2023-02-18T15:40:24.852Z,97278.16
2023-02-18T15:42:26.283Z,97266.41
2023-02-18T15:44:27.592Z,97264.00
2023-02-18T15:46:28.949Z,97263.00
2023-02-18T15:48:33.115Z,97257.38
2023-02-18T15:50:37.444Z,97255.00
2023-02-18T15:52:39.272Z,97240.88
2023-02-18T15:54:41.263Z,97262.22
2023-02-18T15:56:42.604Z,97264.94
2023-02-18T15:58:43.920Z,97256.44
2023-02-18T16:00:45.290Z,97277.09
2023-02-18T16:02:49.698Z,97265.69
2023-02-18T16:04:51.027Z,97270.13
2023-02-18T16:06:52.342Z,97275.72
2023-02-18T16:08:53.643Z,97287.56
2023-02-18T16:10:55.028Z,97272.59
2023-02-18T16:13:02.913Z,97268.06
2023-02-18T16:15:04.253Z,97282.28
2023-02-18T16:17:05.552Z,97269.78
2023-02-18T16:19:06.848Z,97280.09
2023-02-18T16:21:09.716Z,97280.28
2023-02-18T16:23:11.052Z,97276.66
2023-02-18T16:25:12.384Z,97282.94
2023-02-18T16:27:14.716Z,97296.97
2023-02-18T16:29:16.019Z,97301.31
2023-02-18T16:31:17.426Z,97301.50
2023-02-18T16:33:18.759Z,97297.22
2023-02-18T16:35:20.282Z,97305.56
2023-02-18T16:37:39.700Z,97304.72
2023-02-18T16:39:41.000Z,97279.03
2023-02-18T16:41:42.303Z,97266.56
2023-02-18T16:43:43.645Z,97291.63
2023-02-18T16:45:46.074Z,97286.31
2023-02-18T16:47:48.998Z,97292.22
2023-02-18T16:49:50.340Z,97301.44
2023-02-18T16:51:51.714Z,97290.31
2023-02-18T16:53:53.560Z,97308.31
2023-02-18T16:55:57.808Z,97298.50
2023-02-18T16:57:59.193Z,97314.13
2023-02-18T17:00:00.774Z,97321.97
2023-02-18T17:02:04.904Z,97305.25
2023-02-18T17:04:06.283Z,97323.34
2023-02-18T17:06:07.916Z,97321.06
2023-02-18T17:08:09.549Z,97317.84
2023-02-18T17:10:10.845Z,97327.38
2023-02-18T17:12:13.383Z,97304.53
2023-02-18T17:14:14.743Z,97316.63
2023-02-18T17:16:16.101Z,97315.13
2023-02-18T17:18:17.421Z,97328.94
2023-02-18T17:20:18.956Z,97326.47
2023-02-18T17:22:20.367Z,97328.34
2023-02-18T17:24:21.659Z,97332.72
2023-02-18T17:26:24.651Z,97348.84
2023-02-18T17:28:25.992Z,97350.56
2023-02-18T17:30:27.330Z,97353.88
2023-02-18T17:32:29.357Z,97355.56
2023-02-18T17:34:32.478Z,97352.00
2023-02-18T17:36:33.797Z,97363.81
2023-02-18T17:38:35.138Z,97367.09
2023-02-18T17:40:36.437Z,97377.09
2023-02-18T17:42:37.794Z,97378.53
2023-02-18T17:44:39.088Z,97365.56
2023-02-18T17:46:40.399Z,97367.09
2023-02-18T17:48:41.767Z,97372.88
2023-02-18T17:50:43.066Z,97376.13
2023-02-18T17:52:44.419Z,97394.72
2023-02-18T17:54:45.724Z,97384.50
2023-02-18T17:56:47.064Z,97385.31
2023-02-18T17:58:48.844Z,97394.63
2023-02-18T18:00:50.251Z,97382.75
2023-02-18T18:02:54.260Z,97383.66
2023-02-18T18:04:55.583Z,97387.03
2023-02-18T18:06:56.942Z,97395.63
2023-02-18T18:08:58.271Z,97409.34
2023-02-18T18:10:59.559Z,97401.72
2023-02-18T18:13:02.253Z,97400.22
2023-02-18T18:15:04.755Z,97408.88
2023-02-18T18:17:06.118Z,97420.03
2023-02-18T18:19:07.423Z,97409.06
2023-02-18T18:21:09.069Z,97410.06
2023-02-18T18:23:10.503Z,97406.81
2023-02-18T18:25:11.803Z,97411.16
2023-02-18T18:27:13.414Z,97413.78
2023-02-18T18:29:17.750Z,97420.78
2023-02-18T18:31:22.139Z,97436.97
2023-02-18T18:33:23.547Z,97435.41
2023-02-18T18:35:24.950Z,97435.50
2023-02-18T18:37:26.331Z,97440.72
2023-02-18T18:39:27.717Z,97450.16
2023-02-18T18:41:29.016Z,97456.16
2023-02-18T18:43:32.794Z,97438.31
2023-02-18T18:45:34.518Z,97442.66
2023-02-18T18:47:35.819Z,97455.41
2023-02-18T18:49:38.889Z,97446.09
2023-02-18T18:51:40.349Z,97447.84
2023-02-18T18:53:41.679Z,97452.16
2023-02-18T18:55:43.105Z,97461.53
2023-02-18T18:57:46.891Z,97457.38
2023-02-18T18:59:48.524Z,97455.75
2023-02-18T19:01:49.827Z,97456.66
2023-02-18T19:03:51.186Z,97455.81
2023-02-18T19:05:52.544Z,97448.16
2023-02-18T19:07:53.887Z,97458.28
2023-02-18T19:09:55.187Z,97455.72
2023-02-18T19:11:56.482Z,97461.53
2023-02-18T19:13:57.819Z,97463.97
2023-02-18T19:15:59.197Z,97470.66
2023-02-18T19:18:00.574Z,97470.59
2023-02-18T19:20:02.198Z,97473.03
2023-02-18T19:22:03.694Z,97483.16
2023-02-18T19:24:04.985Z,97485.66
2023-02-18T19:26:06.281Z,97494.09
2023-02-18T19:28:07.674Z,97489.75
2023-02-18T19:30:10.321Z,97493.16
2023-02-18T19:32:11.720Z,97496.53
2023-02-18T19:34:13.049Z,97493.09
2023-02-18T19:36:14.903Z,97491.47
2023-02-18T19:38:16.271Z,97483.78
2023-02-18T19:40:17.611Z,97493.16
2023-02-18T19:42:21.924Z,97502.59
2023-02-18T19:44:23.235Z,97511.19
2023-02-18T19:46:24.587Z,97501.88
2023-02-18T19:48:28.812Z,97510.44
2023-02-18T19:50:33.254Z,97513.06
2023-02-18T19:52:34.551Z,97500.41
2023-02-18T19:54:35.848Z,97511.56
2023-02-18T19:56:37.126Z,97520.97
2023-02-18T19:58:40.171Z,97509.41
2023-02-18T20:00:43.670Z,97517.22
2023-02-18T20:02:45.036Z,97516.44
2023-02-18T20:04:46.390Z,97514.31
2023-02-18T20:06:47.834Z,97513.44
2023-02-18T20:08:49.178Z,97513.84
2023-02-18T20:10:50.472Z,97518.47
2023-02-18T20:12:54.698Z,97514.81
2023-02-18T20:15:01.738Z,97511.44
2023-02-18T20:17:03.035Z,97521.66
2023-02-18T20:19:04.364Z,97516.94
2023-02-18T20:21:05.703Z,97522.59
2023-02-18T20:23:07.075Z,97510.91
2023-02-18T20:25:08.423Z,97521.81
2023-02-18T20:27:09.911Z,97517.47
2023-02-18T20:29:11.247Z,97524.50
2023-02-18T20:31:13.268Z,97520.72
2023-02-18T20:33:14.840Z,97523.03
2023-02-18T20:35:16.130Z,97526.72
2023-02-18T20:37:17.463Z,97527.22
2023-02-18T20:39:18.841Z,97529.25
2023-02-18T20:41:20.153Z,97527.63
2023-02-18T20:43:29.970Z,97529.84
2023-02-18T20:45:31.272Z,97544.94
2023-02-18T20:47:32.604Z,97537.34
2023-02-18T20:49:42.242Z,97540.34
2023-02-18T20:51:43.548Z,97543.38
2023-02-18T20:53:44.886Z,97539.59
2023-02-18T20:55:46.810Z,97537.31
2023-02-18T20:57:48.456Z,97545.94
2023-02-18T20:59:49.818Z,97544.47
2023-02-18T21:01:51.212Z,97555.56
2023-02-18T21:03:52.599Z,97557.16
2023-02-18T21:05:53.892Z,97554.84
2023-02-18T21:07:55.214Z,97556.72
2023-02-18T21:09:56.522Z,97557.47
2023-02-18T21:12:00.855Z,97551.44
2023-02-18T21:14:02.271Z,97550.75
2023-02-18T21:16:03.612Z,97563.53
2023-02-18T21:18:04.948Z,97554.06
2023-02-18T21:20:06.245Z,97577.88
2023-02-18T21:22:07.565Z,97561.75
2023-02-18T21:24:08.880Z,97566.53
2023-02-18T21:26:10.275Z,97547.53
2023-02-18T21:28:11.611Z,97569.91
2023-02-18T21:30:13.000Z,97564.34
2023-02-18T21:32:14.451Z,97577.38
2023-02-18T21:34:15.886Z,97566.94
2023-02-18T21:36:17.215Z,97566.13
2023-02-18T21:38:18.515Z,97571.78
2023-02-18T21:40:20.005Z,97569.88
2023-02-18T21:42:21.353Z,97574.72
2023-02-18T21:44:27.383Z,97551.78
2023-02-18T21:46:38.082Z,97567.81
2023-02-18T21:48:57.911Z,97578.72
2023-02-18T21:50:59.233Z,97568.56
2023-02-18T21:53:00.635Z,97574.84
2023-02-18T21:55:01.980Z,97570.47
2023-02-18T21:57:06.055Z,97567.09
2023-02-18T21:59:07.360Z,97565.22
2023-02-18T22:01:09.040Z,97559.41
2023-02-18T22:03:10.499Z,97568.09
2023-02-18T22:05:11.807Z,97564.69
2023-02-18T22:07:13.103Z,97568.50
2023-02-18T22:09:14.416Z,97555.31
2023-02-18T22:11:15.807Z,97556.22
2023-02-18T22:13:17.124Z,97550.22
2023-02-18T22:15:18.455Z,97564.13
2023-02-18T22:17:21.518Z,97557.22
2023-02-18T22:19:22.890Z,97560.41
2023-02-18T22:21:24.229Z,97558.63
2023-02-18T22:23:28.441Z,97421.13
2023-02-18T22:25:29.778Z,97574.06
2023-02-18T22:27:31.082Z,97568.66
2023-02-18T22:29:32.397Z,97570.66
2023-02-18T22:31:33.831Z,97574.06
2023-02-18T22:33:35.171Z,97570.75
2023-02-18T22:35:36.510Z,97574.06
2023-02-18T22:37:37.830Z,97571.50
2023-02-18T22:39:39.135Z,97568.03
2023-02-18T22:41:40.438Z,97569.81
2023-02-18T22:43:41.747Z,97566.50
2023-02-18T22:45:43.162Z,97560.34
2023-02-18T22:47:44.496Z,97552.28
2023-02-18T22:49:45.807Z,97556.97
2023-02-18T22:51:47.147Z,97551.84
2023-02-18T22:53:48.441Z,97554.34
2023-02-18T22:55:49.740Z,97546.88
2023-02-18T22:57:51.030Z,97554.53
2023-02-18T22:59:52.329Z,97547.63
2023-02-18T23:01:53.789Z,97550.22
2023-02-18T23:03:55.195Z,97552.38
2023-02-18T23:05:56.516Z,97553.28
2023-02-18T23:07:57.848Z,97550.38
2023-02-18T23:09:59.205Z,97553.38
2023-02-18T23:12:00.532Z,97556.00
2023-02-18T23:14:27.879Z,97545.66
2023-02-18T23:16:29.200Z,97555.63
2023-02-18T23:18:30.531Z,97546.41
2023-02-18T23:20:50.469Z,97543.84
2023-02-18T23:22:51.771Z,97558.97
2023-02-18T23:24:53.062Z,97551.91
2023-02-18T23:26:54.358Z,97544.19
2023-02-18T23:28:55.658Z,97552.06
2023-02-18T23:30:56.996Z,97542.22
2023-02-18T23:32:58.371Z,97546.84
2023-02-18T23:34:59.668Z,97544.28
2023-02-18T23:37:01.040Z,97548.56
2023-02-18T23:39:02.394Z,97544.44
2023-02-18T23:41:03.683Z,97540.09
2023-02-18T23:43:08.072Z,97550.53
2023-02-18T23:45:09.378Z,97557.00
2023-02-18T23:47:10.704Z,97559.84
2023-02-18T23:49:11.996Z,97553.19